Language selection

Features

My Weather Profile Weather Topics  | 

Nottingham - western half: Past 24 Hour Conditions

 

Arviat Airport

05:00 PM CDT 11 April 2021
Disclaimer

This table is a summary of hourly weather conditions for the past 24 hours.
Please note that these observations might not always be representative of weather conditions over their associated marine area.

Date / Time
(CDT)
Wind(knots) Conditions Visibility(km) Pressure(kPa) Air tempC) Relative humidity(%) Dew pointC) Wind Chill
11 April 2021
17:00 NNW 18 Sunny 16 103.2 -18 80 -21 -30
16:00 NNW 14 gust 21 Mist 10 103.1 -18 80 -21 -29
15:00 NNW 18 Ice Crystals 24 103.0 -18 80 -21 -31
14:00 NW 13 Ice Crystals 24 103.0 -19 78 -22 -30
13:00 NNW 16 Ice Crystals 5 102.9 -19 79 -22 -31
12:00 NNW 18 Ice Crystals 24 102.9 -20 79 -22 -33
11:00 NNW 20 Ice Crystals 16 102.8 -20 80 -23 -34
10:00 NNW 20 Ice Crystals 24 102.8 -21 79 -24 -36
9:00 NNW 20 Ice Crystals 24 102.7 -22 78 -25 -36
8:00 NNW 14 gust 21 Sunny 16 102.7 -22 77 -25 -35
7:00 NW 13 Sunny 16 102.6 -22 78 -25 -34
6:00 NW 13 gust 18 Clear 16 102.5 -22 80 -24 -33
5:00 NNW 17 gust 23 Mist 8 102.4 -20 81 -22 -33
4:00 NNW 16 gust 21 Cloudy 16 102.3 -19 81 -22 -32
3:00 NNW 18 Haze 10 102.2 -19 83 -21 -31
2:00 NNW 19 Mostly Cloudy 16 102.1 -18 84 -21 -31
1:00 NNW 12 gust 17 Clear 16 102.1 -19 84 -21 -29
0:00 NNW 13 gust 21 Clear 16 102.0 -18 84 -20 -29
10 April 2021
23:00 NNW 16 gust 22 Light Snow 15 101.9 -17 84 -20 -29
22:00 NNW 17 gust 22 Clear 15 101.9 -17 85 -19 -29
21:00 NNW 23 Blowing Snow 3 101.7 -16 86 -18 -30
20:00 NNW 20 gust 25 Light Snow 8 101.7 -16 85 -18 -29
19:00 NNW 18 gust 26 Light Snow 3 101.6 -15 86 -17 -27
18:00 NNW 19 gust 27 Light Snow 3 101.5 -15 85 -17 -27
17:00 NNW 21 gust 27 Light Snow 2 101.4 -15 86 -17 -27

Zoom-in to make a selection

Map of Hudson - Hudson Bay marine weather areas Arviat Airport Baker Lake Airport Chesterfield Inlet Airport Coral Harbour Airport Rankin Inlet Airport Sanikiluaq Airport Whale Cove Airport Kinngait (Cape Dorset Airport) Iqaluit Airport Wager Bay Kimmirut Airport Churchill Airport Fort Severn Airport Peawanuck Airport Moosonee Airport Eastmain Airport La Grande Rivière Airport Waskaganish Airport Wemindji Airport Akulivik Airport Inukjuak Airport Ivujivik Airport Kuujjuarapik Airport Puvirnituq Airport Umiujaq Airport Aupaluk Airport Kangiqsujuaq Airport Kangirsuk Airport Kangiqsualujjuaq Airport Kuujjuaq Airport Quaqtaq Airport Salluit Airport Tasiujaq Airport Cape Kakkiviak
Legend:
buoy Buoy
land station Land Station

Hudson - Hudson Bay Area

Another Region

What we are doing

Date modified: